Time;durP1;ratioP1;P1;durP2;ratioP2;P2;SDS_P1;SDS_P2;PMS_P1;PMS_P2;Temp;Humidity;BMP_temperature;BMP_pressure;BME280_temperature;BME280_humidity;BME280_pressure;Samples;Min_cycle;Max_cycle;Signal;HPM_P1;HPM_P2
2022/12/09 00:01:10;;;;;;;;;15.00;11.00;;;;;;;;5071663;28;8779;-73
2022/12/09 00:03:35;;;;;;;;;13.00;10.00;;;;;;;;5070240;28;8818;-74
2022/12/09 00:06:06;;;;;;;;;17.25;10.00;;;;;;;;5071155;28;11518;-74
2022/12/09 00:08:31;;;;;;;;;10.50;8.25;;;;;;;;5071263;28;8786;-74
2022/12/09 00:10:57;;;;;;;;;9.00;8.00;;;;;;;;5071182;28;11561;-74
2022/12/09 00:13:22;;;;;;;;;9.00;9.00;;;;;;;;5070923;28;8810;-74
2022/12/09 00:15:47;;;;;;;;;7.50;6.00;;;;;;;;5071436;28;8795;-75
2022/12/09 00:18:12;;;;;;;;;7.50;7.50;;;;;;;;5071805;28;8767;-75
2022/12/09 00:20:38;;;;;;;;;8.00;6.50;;;;;;;;5071372;28;8901;-75
2022/12/09 00:23:03;;;;;;;;;10.00;8.50;;;;;;;;5071320;28;8811;-75
2022/12/09 00:25:28;;;;;;;;;5.75;5.75;;;;;;;;5071053;28;8802;-75
2022/12/09 00:27:54;;;;;;;;;8.00;6.00;;;;;;;;5071091;28;8779;-75
2022/12/09 00:30:19;;;;;;;;;5.50;1.00;;;;;;;;5071299;28;9621;-75
2022/12/09 00:32:44;;;;;;;;;8.00;5.50;;;;;;;;5071013;28;8814;-76
2022/12/09 00:35:09;;;;;;;;;6.00;6.00;;;;;;;;5071320;28;8802;-75
2022/12/09 00:37:34;;;;;;;;;7.50;6.00;;;;;;;;5069957;28;8802;-75
2022/12/09 00:40:00;;;;;;;;;7.00;7.00;;;;;;;;5071192;28;8794;-75
2022/12/09 00:42:25;;;;;;;;;11.00;6.50;;;;;;;;5071080;28;9634;-75
2022/12/09 00:44:51;;;;;;;;;7.50;6.00;;;;;;;;5068951;28;8864;-75
2022/12/09 00:47:16;;;;;;;;;21.50;14.00;;;;;;;;5070726;28;8790;-75
2022/12/09 00:49:42;;;;;;;;;17.00;17.00;;;;;;;;5070845;28;8810;-75
2022/12/09 00:52:07;;;;;;;;;16.00;16.00;;;;;;;;5069373;28;8846;-75
2022/12/09 00:54:32;;;;;;;;;30.75;23.75;;;;;;;;5069371;28;9834;-76
2022/12/09 00:56:58;;;;;;;;;41.75;37.25;;;;;;;;5070742;28;8803;-76
2022/12/09 00:59:23;;;;;;;;;46.00;40.25;;;;;;;;5070605;28;8881;-76
2022/12/09 01:01:48;;;;;;;;;50.50;44.25;;;;;;;;5070097;28;9844;-76
2022/12/09 01:04:13;;;;;;;;;47.00;43.00;;;;;;;;5070655;28;8814;-76
2022/12/09 01:06:39;;;;;;;;;52.67;43.67;;;;;;;;5070469;28;8771;-76
2022/12/09 01:09:05;;;;;;;;;57.00;48.00;;;;;;;;5070481;28;8783;-76
2022/12/09 01:11:30;;;;;;;;;61.33;48.33;;;;;;;;5070455;28;8799;-74
2022/12/09 01:13:59;;;;;;;;;67.33;53.00;;;;;;;;5070284;28;8801;-76
2022/12/09 01:16:25;;;;;;;;;63.67;49.33;;;;;;;;5070490;28;8791;-74
2022/12/09 01:18:52;;;;;;;;;63.33;52.00;;;;;;;;5068457;28;8814;-74
2022/12/09 01:21:17;;;;;;;;;68.00;53.00;;;;;;;;5070406;28;8779;-73
2022/12/09 01:23:43;;;;;;;;;61.00;51.00;;;;;;;;5070252;28;8830;-73
2022/12/09 01:26:08;;;;;;;;;69.00;54.33;;;;;;;;5069964;28;9021;-73
2022/12/09 01:28:34;;;;;;;;;68.33;56.00;;;;;;;;5070187;28;8817;-75
2022/12/09 01:31:13;;;;;;;;;58.67;49.00;;;;;;;;5070334;28;8806;-75
2022/12/09 01:33:39;;;;;;;;;66.00;51.00;;;;;;;;5070194;28;8798;-74
2022/12/09 01:36:06;;;;;;;;;60.67;51.33;;;;;;;;5070418;28;8803;-75
2022/12/09 01:38:33;;;;;;;;;63.33;50.33;;;;;;;;5069727;28;8889;-75
2022/12/09 01:40:59;;;;;;;;;63.67;50.00;;;;;;;;5070058;28;8905;-74
2022/12/09 01:43:24;;;;;;;;;63.00;50.00;;;;;;;;5070118;28;8959;-74
2022/12/09 01:45:50;;;;;;;;;61.33;48.00;;;;;;;;5068624;28;8836;-75
2022/12/09 01:48:32;;;;;;;;;64.00;50.67;;;;;;;;5069134;28;8841;-75
2022/12/09 01:51:03;;;;;;;;;64.33;52.00;;;;;;;;5070051;28;8806;-75
2022/12/09 01:53:31;;;;;;;;;64.67;52.67;;;;;;;;5070031;28;8798;-75
2022/12/09 01:55:57;;;;;;;;;62.00;48.67;;;;;;;;5069944;28;8787;-75
2022/12/09 01:58:23;;;;;;;;;67.33;52.00;;;;;;;;5069434;28;8889;-75
2022/12/09 02:00:48;;;;;;;;;61.33;51.00;;;;;;;;5070054;28;8917;-75
2022/12/09 02:03:13;;;;;;;;;54.00;46.67;;;;;;;;5069784;28;8933;-75
2022/12/09 02:05:39;;;;;;;;;54.33;48.33;;;;;;;;5070130;28;8778;-75
2022/12/09 02:08:15;;;;;;;;;59.00;49.33;;;;;;;;5069817;28;8786;-73
2022/12/09 02:10:55;;;;;;;;;65.33;51.33;;;;;;;;5068361;28;9555;-74
2022/12/09 02:13:23;;;;;;;;;63.00;50.67;;;;;;;;5069751;28;8913;-74
2022/12/09 02:16:00;;;;;;;;;61.67;49.00;;;;;;;;5069230;28;11549;-74
2022/12/09 02:18:34;;;;;;;;;62.33;49.00;;;;;;;;5069771;28;8945;-74
2022/12/09 02:21:01;;;;;;;;;54.00;44.67;;;;;;;;5069575;28;11620;-74
2022/12/09 02:23:35;;;;;;;;;61.33;51.33;;;;;;;;5069798;28;8896;-76
2022/12/09 02:26:08;;;;;;;;;62.33;51.33;;;;;;;;5069715;28;8813;-75
2022/12/09 02:28:40;;;;;;;;;58.67;49.33;;;;;;;;5069848;28;8798;-75
2022/12/09 02:31:08;;;;;;;;;50.67;45.00;;;;;;;;5071845;28;8938;-75
2022/12/09 02:33:52;;;;;;;;;49.00;44.33;;;;;;;;5073320;28;11535;-75
2022/12/09 02:36:18;;;;;;;;;50.33;45.00;;;;;;;;5073579;28;8810;-75
2022/12/09 02:38:46;;;;;;;;;57.00;47.33;;;;;;;;5073400;28;8791;-74
2022/12/09 02:41:26;;;;;;;;;56.33;46.00;;;;;;;;5073372;28;8801;-74
2022/12/09 02:43:59;;;;;;;;;52.67;45.00;;;;;;;;5073170;28;11746;-75
2022/12/09 02:46:24;;;;;;;;;50.33;41.67;;;;;;;;5073263;28;11512;-75
2022/12/09 02:48:52;;;;;;;;;53.00;45.00;;;;;;;;5071813;28;11555;-75
2022/12/09 02:51:18;;;;;;;;;41.67;38.00;;;;;;;;5073205;28;8818;-75
2022/12/09 02:53:45;;;;;;;;;50.67;43.33;;;;;;;;5073237;28;9594;-74
2022/12/09 02:56:11;;;;;;;;;48.00;41.00;;;;;;;;5073074;28;11771;-75
2022/12/09 02:58:36;;;;;;;;;26.00;26.00;;;;;;;;5073037;28;11545;-74
2022/12/09 03:01:02;;;;;;;;;50.00;44.67;;;;;;;;5071623;28;11631;-75
2022/12/09 03:03:30;;;;;;;;;47.33;42.33;;;;;;;;5071557;28;8977;-75
2022/12/09 03:05:55;;;;;;;;;49.33;41.33;;;;;;;;5072909;28;12274;-76
2022/12/09 03:08:38;;;;;;;;;37.00;37.00;;;;;;;;5072531;28;11515;-75
2022/12/09 03:11:04;;;;;;;;;44.25;36.50;;;;;;;;5072881;28;8786;-77
2022/12/09 03:13:29;;;;;;;;;37.25;33.25;;;;;;;;5072445;28;11677;-75
2022/12/09 03:15:58;;;;;;;;;31.00;28.25;;;;;;;;5071588;28;8802;-74
2022/12/09 03:18:25;;;;;;;;;34.00;30.75;;;;;;;;5071446;28;8941;-75
2022/12/09 03:20:51;;;;;;;;;35.50;30.75;;;;;;;;5072617;28;11595;-74
2022/12/09 03:23:19;;;;;;;;;37.00;31.75;;;;;;;;5072373;28;11540;-74
2022/12/09 03:25:47;;;;;;;;;33.50;32.00;;;;;;;;5072672;28;8794;-74
2022/12/09 03:28:19;;;;;;;;;32.50;25.50;;;;;;;;5070594;28;11666;-74
2022/12/09 03:30:44;;;;;;;;;38.25;33.75;;;;;;;;5072472;28;11596;-74
2022/12/09 03:33:11;;;;;;;;;40.00;32.25;;;;;;;;5072431;28;11547;-74
2022/12/09 03:35:48;;;;;;;;;36.00;31.25;;;;;;;;5072422;28;8794;-74
2022/12/09 03:38:15;;;;;;;;;40.25;34.00;;;;;;;;5072276;28;11514;-74
2022/12/09 03:40:41;;;;;;;;;44.75;37.50;;;;;;;;5072050;28;11507;-74
2022/12/09 03:43:14;;;;;;;;;36.75;30.50;;;;;;;;5071915;28;11647;-74
2022/12/09 03:45:40;;;;;;;;;33.25;31.50;;;;;;;;5072056;28;9585;-74
2022/12/09 03:48:06;;;;;;;;;42.25;35.50;;;;;;;;5071915;28;11526;-74
2022/12/09 03:50:34;;;;;;;;;39.25;37.25;;;;;;;;5071985;28;8794;-74
2022/12/09 03:53:05;;;;;;;;;37.25;34.25;;;;;;;;5072176;28;9489;-74
2022/12/09 03:55:33;;;;;;;;;31.50;31.00;;;;;;;;5071996;28;11539;-75
2022/12/09 03:57:59;;;;;;;;;43.75;35.75;;;;;;;;5071824;28;11500;-74
2022/12/09 04:00:25;;;;;;;;;39.50;35.25;;;;;;;;5069998;28;11549;-74
2022/12/09 04:02:50;;;;;;;;;32.50;32.00;;;;;;;;5071744;28;11507;-74
2022/12/09 04:05:16;;;;;;;;;31.00;28.50;;;;;;;;5071804;28;8799;-76
2022/12/09 04:07:41;;;;;;;;;34.25;33.50;;;;;;;;5070480;28;9565;-76
2022/12/09 04:10:07;;;;;;;;;41.00;33.50;;;;;;;;5071900;28;8806;-75
2022/12/09 04:12:32;;;;;;;;;38.25;30.75;;;;;;;;5071404;28;8810;-74
2022/12/09 04:14:57;;;;;;;;;39.75;37.00;;;;;;;;5071546;28;8927;-74
2022/12/09 04:17:22;;;;;;;;;37.75;35.75;;;;;;;;5071179;28;8791;-75
2022/12/09 04:19:48;;;;;;;;;34.25;31.00;;;;;;;;5071486;28;8799;-75
2022/12/09 04:22:13;;;;;;;;;35.25;32.50;;;;;;;;5071533;28;8783;-73
2022/12/09 04:24:38;;;;;;;;;35.00;32.25;;;;;;;;5071269;28;8953;-73
2022/12/09 04:27:04;;;;;;;;;35.00;30.50;;;;;;;;5071308;28;8949;-73
2022/12/09 04:29:29;;;;;;;;;34.50;30.50;;;;;;;;5071194;28;8906;-75
2022/12/09 04:31:54;;;;;;;;;33.75;26.75;;;;;;;;5071442;28;8817;-74
2022/12/09 04:34:19;;;;;;;;;35.50;30.00;;;;;;;;5071141;28;8795;-74
2022/12/09 04:36:45;;;;;;;;;31.50;27.00;;;;;;;;5070889;28;8810;-75
2022/12/09 04:39:10;;;;;;;;;39.50;28.00;;;;;;;;5069794;28;8807;-73
2022/12/09 04:41:35;;;;;;;;;31.75;30.75;;;;;;;;5071013;28;8860;-73
2022/12/09 04:44:01;;;;;;;;;34.25;30.25;;;;;;;;5071147;28;8818;-74
2022/12/09 04:46:26;;;;;;;;;34.75;33.00;;;;;;;;5069633;28;8791;-74
2022/12/09 04:48:51;;;;;;;;;31.00;30.25;;;;;;;;5070849;28;9559;-74
2022/12/09 04:51:16;;;;;;;;;33.50;28.00;;;;;;;;5071163;28;8822;-75
2022/12/09 04:53:42;;;;;;;;;39.25;33.25;;;;;;;;5070278;28;8863;-75
2022/12/09 04:56:10;;;;;;;;;29.75;26.75;;;;;;;;5069017;28;8818;-74
2022/12/09 04:58:35;;;;;;;;;28.50;26.00;;;;;;;;5069430;28;8825;-74
2022/12/09 05:01:07;;;;;;;;;30.25;27.00;;;;;;;;5070665;28;11487;-74
2022/12/09 05:03:32;;;;;;;;;30.25;26.75;;;;;;;;5069171;28;9597;-74
2022/12/09 05:05:57;;;;;;;;;28.25;23.25;;;;;;;;5070577;28;11552;-74
2022/12/09 05:08:22;;;;;;;;;28.75;26.50;;;;;;;;5070634;28;8779;-75
2022/12/09 05:10:49;;;;;;;;;29.75;26.00;;;;;;;;5070517;28;8815;-74
2022/12/09 05:13:14;;;;;;;;;32.75;29.75;;;;;;;;5049717;28;8967;-75
2022/12/09 05:15:40;;;;;;;;;31.00;27.25;;;;;;;;5048983;28;11651;-75
2022/12/09 05:18:05;;;;;;;;;26.25;23.25;;;;;;;;5050213;28;8805;-75
2022/12/09 05:20:30;;;;;;;;;23.50;20.75;;;;;;;;5049159;28;8928;-75
2022/12/09 05:22:55;;;;;;;;;26.75;22.25;;;;;;;;5049044;28;8809;-75
2022/12/09 05:25:21;;;;;;;;;27.25;22.00;;;;;;;;5040112;28;8832;-75
2022/12/09 05:27:46;;;;;;;;;26.00;22.50;;;;;;;;5040294;28;8817;-75
2022/12/09 05:30:12;;;;;;;;;32.00;26.00;;;;;;;;5038780;28;8855;-76
2022/12/09 05:32:37;;;;;;;;;31.75;28.50;;;;;;;;5037620;28;8828;-76
2022/12/09 05:35:02;;;;;;;;;23.25;21.50;;;;;;;;5039726;28;8855;-76
2022/12/09 05:37:28;;;;;;;;;23.00;21.00;;;;;;;;5038438;28;8825;-75
2022/12/09 05:39:53;;;;;;;;;26.25;24.00;;;;;;;;5040683;28;8796;-74
2022/12/09 05:42:18;;;;;;;;;28.75;23.50;;;;;;;;5042634;28;8826;-74
2022/12/09 05:44:43;;;;;;;;;26.25;22.00;;;;;;;;5039877;28;8848;-75
2022/12/09 05:47:09;;;;;;;;;29.00;26.00;;;;;;;;5039552;28;8845;-74
2022/12/09 05:49:34;;;;;;;;;27.25;23.75;;;;;;;;5038444;28;8806;-76
2022/12/09 05:51:59;;;;;;;;;25.50;21.00;;;;;;;;5040237;28;8808;-75
2022/12/09 05:54:25;;;;;;;;;24.00;22.00;;;;;;;;5039359;28;8804;-75
2022/12/09 05:56:50;;;;;;;;;24.00;21.50;;;;;;;;5037746;28;8813;-75
2022/12/09 05:59:15;;;;;;;;;19.75;19.00;;;;;;;;5038873;28;9543;-74
2022/12/09 06:01:41;;;;;;;;;33.50;23.25;;;;;;;;5038180;28;9544;-74
2022/12/09 06:04:06;;;;;;;;;20.75;19.25;;;;;;;;5039634;28;8833;-74
2022/12/09 06:06:31;;;;;;;;;25.75;21.25;;;;;;;;5040250;28;8828;-75
2022/12/09 06:08:58;;;;;;;;;25.50;20.50;;;;;;;;5043390;28;8865;-74
2022/12/09 06:11:24;;;;;;;;;24.75;21.25;;;;;;;;5044249;28;8839;-77
2022/12/09 06:13:50;;;;;;;;;19.75;19.75;;;;;;;;5035214;28;11555;-74
2022/12/09 06:16:17;;;;;;;;;19.00;17.00;;;;;;;;5041175;28;8810;-75
2022/12/09 06:18:43;;;;;;;;;21.75;20.00;;;;;;;;5053917;28;8819;-74
2022/12/09 06:21:09;;;;;;;;;23.50;20.50;;;;;;;;5053677;28;12402;-75
2022/12/09 06:23:36;;;;;;;;;23.25;20.75;;;;;;;;5050520;28;9021;-74
2022/12/09 06:26:01;;;;;;;;;20.00;19.25;;;;;;;;5044407;28;11638;-76
2022/12/09 06:28:26;;;;;;;;;22.75;20.00;;;;;;;;5041515;28;11650;-77
2022/12/09 06:30:52;;;;;;;;;30.25;25.75;;;;;;;;5043348;28;8836;-75
2022/12/09 06:33:17;;;;;;;;;22.50;22.50;;;;;;;;5041873;28;8862;-76
2022/12/09 06:35:42;;;;;;;;;21.50;18.25;;;;;;;;5042070;28;8820;-77
2022/12/09 06:38:08;;;;;;;;;21.50;20.00;;;;;;;;5043834;28;8818;-76
2022/12/09 06:40:33;;;;;;;;;19.25;17.50;;;;;;;;5042439;28;8881;-77
2022/12/09 06:42:58;;;;;;;;;23.25;19.50;;;;;;;;5046994;28;8921;-77
2022/12/09 06:45:23;;;;;;;;;25.00;20.00;;;;;;;;5043537;28;8832;-77
2022/12/09 06:47:49;;;;;;;;;21.00;18.50;;;;;;;;5042030;28;8950;-75
2022/12/09 06:50:14;;;;;;;;;24.75;20.00;;;;;;;;5041411;28;8805;-75
2022/12/09 06:52:39;;;;;;;;;26.00;23.75;;;;;;;;5043284;28;8843;-76
2022/12/09 06:55:06;;;;;;;;;27.00;24.50;;;;;;;;5041321;28;9482;-75
2022/12/09 06:57:31;;;;;;;;;23.00;21.00;;;;;;;;5043305;28;8793;-75
2022/12/09 06:59:56;;;;;;;;;22.00;20.50;;;;;;;;5040797;28;11559;-75
2022/12/09 07:02:22;;;;;;;;;23.00;21.00;;;;;;;;5037779;28;8819;-73
2022/12/09 07:04:51;;;;;;;;;26.00;20.75;;;;;;;;5032403;28;8819;-74
2022/12/09 07:07:16;;;;;;;;;22.25;20.00;;;;;;;;5033005;28;8787;-74
2022/12/09 07:09:41;;;;;;;;;19.25;16.50;;;;;;;;5032790;28;11519;-76
2022/12/09 07:12:07;;;;;;;;;21.75;19.25;;;;;;;;5042697;28;8809;-74
2022/12/09 07:14:32;;;;;;;;;19.00;18.00;;;;;;;;5050166;28;8885;-77
2022/12/09 07:16:57;;;;;;;;;22.25;18.50;;;;;;;;5048028;28;8955;-74
2022/12/09 07:19:23;;;;;;;;;18.75;16.00;;;;;;;;5051442;28;8805;-76
2022/12/09 07:21:50;;;;;;;;;23.75;23.25;;;;;;;;5048674;28;9590;-77
2022/12/09 07:24:15;;;;;;;;;24.75;22.00;;;;;;;;5050749;28;8829;-77
2022/12/09 07:26:40;;;;;;;;;21.25;18.00;;;;;;;;5050910;28;11621;-79
2022/12/09 07:29:06;;;;;;;;;8.00;6.50;;;;;;;;5052159;28;8801;-75
2022/12/09 07:31:32;;;;;;;;;17.25;15.50;;;;;;;;5052117;28;8817;-76
2022/12/09 07:33:57;;;;;;;;;15.75;13.50;;;;;;;;5052615;28;9539;-77
2022/12/09 07:36:24;;;;;;;;;16.50;15.00;;;;;;;;5051222;28;11545;-76
2022/12/09 07:38:56;;;;;;;;;19.75;17.25;;;;;;;;5051592;28;8802;-76
2022/12/09 07:41:21;;;;;;;;;22.00;18.00;;;;;;;;5054142;28;11611;-77
2022/12/09 07:43:46;;;;;;;;;16.75;16.75;;;;;;;;5071724;28;12293;-78
2022/12/09 07:46:13;;;;;;;;;18.00;17.00;;;;;;;;5060817;28;8817;-76
2022/12/09 07:48:38;;;;;;;;;22.75;20.00;;;;;;;;5051909;28;8918;-76
2022/12/09 07:51:04;;;;;;;;;18.50;15.50;;;;;;;;5051331;28;11516;-77
2022/12/09 07:53:29;;;;;;;;;24.00;19.00;;;;;;;;5042577;28;8800;-76
2022/12/09 07:55:55;;;;;;;;;20.50;18.25;;;;;;;;5039735;28;8859;-77
2022/12/09 07:58:20;;;;;;;;;16.00;15.50;;;;;;;;5041010;28;8825;-75
2022/12/09 08:00:45;;;;;;;;;22.00;19.75;;;;;;;;5038232;28;8811;-75
2022/12/09 08:03:11;;;;;;;;;19.75;16.00;;;;;;;;5040393;28;8966;-74
2022/12/09 08:05:44;;;;;;;;;30.75;30.25;;;;;;;;5039731;28;8816;-75
2022/12/09 08:08:09;;;;;;;;;57.67;47.33;;;;;;;;5038607;28;11586;-86
2022/12/09 08:10:35;;;;;;;;;24.00;21.75;;;;;;;;5039853;28;8801;-81
2022/12/09 08:13:00;;;;;;;;;22.25;19.50;;;;;;;;5044499;28;8926;-78
2022/12/09 08:15:25;;;;;;;;;21.00;20.50;;;;;;;;5039642;28;8805;-77
2022/12/09 08:17:50;;;;;;;;;18.75;16.00;;;;;;;;5037473;28;8805;-77
2022/12/09 08:20:15;;;;;;;;;19.00;17.50;;;;;;;;5040246;28;8932;-76
2022/12/09 08:22:41;;;;;;;;;23.25;20.00;;;;;;;;5040806;28;8871;-75
2022/12/09 08:25:06;;;;;;;;;19.00;16.25;;;;;;;;5038109;28;8829;-79
2022/12/09 08:27:32;;;;;;;;;18.25;15.25;;;;;;;;5037707;28;8878;-82
2022/12/09 08:29:57;;;;;;;;;14.75;14.75;;;;;;;;5039316;28;8841;-80
2022/12/09 08:32:22;;;;;;;;;16.75;16.50;;;;;;;;5040775;28;9539;-80
2022/12/09 08:34:47;;;;;;;;;16.00;16.00;;;;;;;;5039231;28;8840;-80
2022/12/09 08:37:12;;;;;;;;;19.00;16.75;;;;;;;;5039542;28;8833;-81
2022/12/09 08:39:38;;;;;;;;;16.00;13.00;;;;;;;;5040524;28;8889;-80
2022/12/09 08:42:03;;;;;;;;;18.00;13.00;;;;;;;;5042932;28;8853;-80
2022/12/09 08:44:28;;;;;;;;;15.00;15.00;;;;;;;;5037331;28;8832;-77
2022/12/09 08:46:54;;;;;;;;;20.50;18.00;;;;;;;;5039345;28;8951;-78
2022/12/09 08:49:20;;;;;;;;;20.00;16.00;;;;;;;;5040285;28;9626;-78
2022/12/09 08:51:50;;;;;;;;;21.00;17.75;;;;;;;;5038595;28;8795;-78
2022/12/09 08:54:15;;;;;;;;;25.50;19.00;;;;;;;;5038877;28;11563;-76
2022/12/09 08:56:45;;;;;;;;;22.75;17.25;;;;;;;;5038685;28;11525;-80
2022/12/09 08:59:10;;;;;;;;;20.00;18.75;;;;;;;;5041222;28;8813;-76
2022/12/09 09:01:35;;;;;;;;;16.00;13.75;;;;;;;;5040830;28;11737;-75
2022/12/09 09:04:02;;;;;;;;;23.00;21.00;;;;;;;;5037854;28;8832;-76
2022/12/09 09:06:28;;;;;;;;;25.75;22.00;;;;;;;;5040936;28;8813;-75
2022/12/09 09:08:54;;;;;;;;;23.00;20.50;;;;;;;;5038965;28;11614;-75
2022/12/09 09:11:19;;;;;;;;;23.00;20.75;;;;;;;;5042002;28;8825;-76
2022/12/09 09:13:46;;;;;;;;;19.25;14.25;;;;;;;;5038667;28;11527;-75
2022/12/09 09:16:15;;;;;;;;;22.75;16.25;;;;;;;;5037402;28;8831;-75
2022/12/09 09:18:41;;;;;;;;;21.75;18.50;;;;;;;;5037877;28;11555;-74
2022/12/09 09:21:07;;;;;;;;;14.25;13.00;;;;;;;;5038270;28;11550;-75
2022/12/09 09:23:33;;;;;;;;;18.50;14.50;;;;;;;;5038856;28;8831;-73
2022/12/09 09:25:58;;;;;;;;;17.75;16.50;;;;;;;;5037972;28;12297;-74
2022/12/09 09:28:24;;;;;;;;;18.25;16.50;;;;;;;;5039320;28;8787;-73
2022/12/09 09:30:56;;;;;;;;;46.25;40.00;;;;;;;;5039307;28;8805;-74
2022/12/09 09:33:21;;;;;;;;;68.67;54.33;;;;;;;;5040021;28;12325;-73
2022/12/09 09:35:53;;;;;;;;;100.75;82.50;;;;;;;;5037969;28;8852;-73
2022/12/09 09:38:18;;;;;;;;;55.33;44.00;;;;;;;;5046938;28;9584;-73
2022/12/09 09:40:43;;;;;;;;;86.33;65.67;;;;;;;;5048229;28;11591;-74
2022/12/09 09:43:13;;;;;;;;;96.50;78.75;;;;;;;;5043128;28;8843;-74
2022/12/09 09:45:39;;;;;;;;;71.33;57.00;;;;;;;;5047622;28;8833;-78
2022/12/09 09:48:05;;;;;;;;;34.25;33.00;;;;;;;;5047892;28;8805;-77
2022/12/09 09:50:50;;;;;;;;;66.67;54.67;;;;;;;;5047578;28;8915;-77
2022/12/09 09:53:26;;;;;;;;;66.67;52.67;;;;;;;;5048027;28;9019;-76
2022/12/09 09:55:59;;;;;;;;;60.33;47.67;;;;;;;;5048878;28;8874;-80
2022/12/09 09:58:35;;;;;;;;;27.75;26.50;;;;;;;;5049688;28;9583;-77
2022/12/09 10:01:05;;;;;;;;;21.50;20.75;;;;;;;;5048413;28;11582;-74
2022/12/09 10:03:42;;;;;;;;;21.75;18.00;;;;;;;;5045677;28;11579;-74
2022/12/09 10:06:29;;;;;;;;;22.50;20.25;;;;;;;;5042566;28;11549;-79
2022/12/09 10:09:27;;;;;;;;;86.33;63.33;;;;;;;;5029823;28;11531;-77
2022/12/09 10:11:54;;;;;;;;;90.67;69.00;;;;;;;;4976893;28;8943;-79
2022/12/09 10:14:40;;;;;;;;;13.25;12.25;;;;;;;;4985039;28;8860;-74
2022/12/09 10:17:14;;;;;;;;;19.50;13.75;;;;;;;;4986061;28;11620;-74
2022/12/09 10:20:14;;;;;;;;;17.00;15.00;;;;;;;;5822892;22;11651;-77
2022/12/09 10:22:59;;;;;;;;;21.25;17.75;;;;;;;;5000567;28;11600;-74
2022/12/09 10:25:26;;;;;;;;;19.25;16.25;;;;;;;;4990006;28;11622;-75
2022/12/09 10:28:00;;;;;;;;;19.25;15.00;;;;;;;;4990003;28;12370;-77
2022/12/09 10:30:26;;;;;;;;;24.75;19.00;;;;;;;;4990080;28;11550;-77
2022/12/09 10:32:52;;;;;;;;;21.50;18.75;;;;;;;;4990154;28;11650;-79
2022/12/09 10:35:22;;;;;;;;;24.25;17.75;;;;;;;;4990202;28;8813;-80
2022/12/09 10:37:48;;;;;;;;;22.50;17.50;;;;;;;;4990048;28;11711;-82
2022/12/09 10:40:28;;;;;;;;;28.25;20.25;;;;;;;;4990080;28;11607;-82
2022/12/09 10:45:47;;;;;;;;;20.50;17.50;;;;;;;;4990048;28;11561;-81
2022/12/09 10:48:19;;;;;;;;;20.75;17.00;;;;;;;;4990124;28;11697;-76
2022/12/09 10:50:45;;;;;;;;;26.00;19.00;;;;;;;;5022739;28;11690;-75
2022/12/09 10:53:12;;;;;;;;;21.25;19.75;;;;;;;;5030870;28;11666;-76
2022/12/09 10:55:40;;;;;;;;;22.00;20.00;;;;;;;;5014134;28;8802;-75
2022/12/09 10:58:14;;;;;;;;;18.50;15.25;;;;;;;;5010025;28;11706;-75
2022/12/09 11:00:39;;;;;;;;;26.50;24.00;;;;;;;;5008426;28;11659;-76
2022/12/09 11:03:21;;;;;;;;;23.25;21.75;;;;;;;;5017452;28;11582;-78
2022/12/09 11:05:53;;;;;;;;;23.00;19.75;;;;;;;;5020346;28;8823;-80
2022/12/09 11:08:22;;;;;;;;;22.00;20.00;;;;;;;;5030011;28;11614;-79
2022/12/09 11:10:48;;;;;;;;;22.00;19.00;;;;;;;;5028348;28;11694;-80
2022/12/09 11:13:15;;;;;;;;;31.25;27.00;;;;;;;;5032839;28;11528;-80
2022/12/09 11:15:48;;;;;;;;;24.75;22.50;;;;;;;;5022788;28;11560;-74
2022/12/09 11:18:18;;;;;;;;;28.50;24.00;;;;;;;;5029275;28;11554;-75
2022/12/09 11:20:52;;;;;;;;;31.75;26.50;;;;;;;;5017514;28;11679;-75
2022/12/09 11:23:19;;;;;;;;;29.75;24.25;;;;;;;;5032023;28;11528;-79
2022/12/09 11:25:58;;;;;;;;;26.25;25.00;;;;;;;;5021009;28;12500;-80
2022/12/09 11:28:26;;;;;;;;;25.00;22.50;;;;;;;;5010810;28;11593;-80
2022/12/09 11:30:51;;;;;;;;;25.75;23.00;;;;;;;;5023747;28;11614;-82
2022/12/09 11:33:22;;;;;;;;;23.75;23.25;;;;;;;;5032022;28;11507;-82
2022/12/09 11:35:47;;;;;;;;;26.75;22.50;;;;;;;;5031300;28;8820;-84
2022/12/09 11:38:31;;;;;;;;;23.00;20.25;;;;;;;;5031970;28;11745;-84
2022/12/09 11:41:06;;;;;;;;;26.00;23.00;;;;;;;;5016440;28;8811;-83
2022/12/09 11:43:34;;;;;;;;;28.50;23.25;;;;;;;;5011119;28;11587;-82
2022/12/09 11:45:59;;;;;;;;;25.75;24.50;;;;;;;;5011726;28;11552;-79
2022/12/09 11:48:29;;;;;;;;;28.50;24.00;;;;;;;;5011618;28;11627;-80
2022/12/09 11:50:54;;;;;;;;;27.00;26.00;;;;;;;;5010945;28;8830;-80
2022/12/09 11:53:23;;;;;;;;;24.50;24.25;;;;;;;;5031884;28;11623;-81
2022/12/09 11:55:55;;;;;;;;;21.25;21.00;;;;;;;;5031520;28;8828;-84
2022/12/09 11:58:24;;;;;;;;;25.50;25.25;;;;;;;;5031635;28;11515;-80
2022/12/09 12:00:57;;;;;;;;;16.25;16.25;;;;;;;;5016054;28;11578;-81
2022/12/09 12:03:41;;;;;;;;;44.25;37.25;;;;;;;;5011403;28;10969;-83
2022/12/09 12:06:35;;;;;;;;;36.00;31.75;;;;;;;;5022367;28;11557;-83
2022/12/09 12:09:04;;;;;;;;;29.25;27.25;;;;;;;;5025373;28;11531;-86
2022/12/09 12:11:39;;;;;;;;;33.50;30.50;;;;;;;;5010940;28;11587;-85
2022/12/09 12:14:19;;;;;;;;;26.25;22.50;;;;;;;;5011891;28;11529;-81
2022/12/09 12:16:44;;;;;;;;;32.75;28.50;;;;;;;;5011152;28;12338;-84
2022/12/09 12:19:16;;;;;;;;;35.75;33.50;;;;;;;;5009767;28;11609;-81
2022/12/09 12:21:47;;;;;;;;;31.00;29.00;;;;;;;;5011682;28;8828;-82
2022/12/09 12:24:38;;;;;;;;;27.75;24.00;;;;;;;;5011760;28;11566;-82
2022/12/09 12:27:35;;;;;;;;;36.50;32.50;;;;;;;;5029297;28;11539;-82
2022/12/09 12:30:06;;;;;;;;;33.25;31.00;;;;;;;;5008670;28;11646;-83
2022/12/09 12:32:38;;;;;;;;;42.00;34.75;;;;;;;;5010980;28;11633;-82
2022/12/09 12:35:09;;;;;;;;;40.25;33.50;;;;;;;;5010758;28;12021;-79
2022/12/09 12:37:52;;;;;;;;;39.75;33.75;;;;;;;;5010563;28;11950;-77
2022/12/09 12:40:17;;;;;;;;;34.75;31.25;;;;;;;;5018621;28;12349;-85
2022/12/09 12:46:15;;;;;;;;;33.50;31.00;;;;;;;;5030657;28;11572;-77
2022/12/09 12:48:48;;;;;;;;;29.50;27.50;;;;;;;;5030607;28;11562;-77
2022/12/09 12:51:27;;;;;;;;;37.50;32.25;;;;;;;;5014149;28;11580;-83
2022/12/09 12:53:59;;;;;;;;;35.50;34.25;;;;;;;;5031055;28;11539;-78
2022/12/09 12:56:35;;;;;;;;;40.00;35.50;;;;;;;;5018665;28;12462;-79
2022/12/09 12:59:01;;;;;;;;;34.75;32.25;;;;;;;;5010188;28;11535;-77
2022/12/09 13:01:28;;;;;;;;;55.50;43.25;;;;;;;;5009729;28;11598;-78
2022/12/09 13:04:05;;;;;;;;;54.25;43.00;;;;;;;;5010773;28;8853;-80
2022/12/09 13:06:36;;;;;;;;;52.25;43.50;;;;;;;;5010348;28;11579;-75
2022/12/09 13:09:07;;;;;;;;;46.50;38.50;;;;;;;;5009803;28;11627;-75
2022/12/09 13:11:51;;;;;;;;;42.75;37.00;;;;;;;;5010107;28;11661;-76
2022/12/09 13:14:19;;;;;;;;;47.25;37.75;;;;;;;;5010076;28;11560;-75
2022/12/09 13:16:45;;;;;;;;;36.50;36.25;;;;;;;;5010092;28;12376;-75
2022/12/09 13:19:22;;;;;;;;;40.25;34.75;;;;;;;;5009272;28;11551;-76
2022/12/09 13:21:48;;;;;;;;;33.25;32.75;;;;;;;;5069359;22;8890;-74
2022/12/09 13:24:14;;;;;;;;;32.25;27.75;;;;;;;;5018480;28;12305;-74
2022/12/09 13:26:40;;;;;;;;;37.75;32.75;;;;;;;;5041787;28;8931;-70
2022/12/09 13:29:22;;;;;;;;;38.50;33.00;;;;;;;;5046716;28;11665;-75
2022/12/09 13:31:58;;;;;;;;;39.50;36.75;;;;;;;;5009155;28;8942;-73
2022/12/09 13:34:42;;;;;;;;;38.00;34.75;;;;;;;;5009005;28;11583;-74
2022/12/09 13:37:25;;;;;;;;;39.75;37.00;;;;;;;;5042046;28;11701;-75
2022/12/09 13:39:54;;;;;;;;;42.50;37.00;;;;;;;;5045186;28;11584;-74
2022/12/09 13:45:25;;;;;;;;;40.50;37.00;;;;;;;;5048756;28;11735;-74
2022/12/09 13:47:54;;;;;;;;;37.50;34.50;;;;;;;;5047602;28;11553;-72
2022/12/09 13:50:23;;;;;;;;;44.75;37.50;;;;;;;;5033275;28;11569;-74
2022/12/09 13:52:53;;;;;;;;;35.25;31.50;;;;;;;;5045635;28;11582;-71
2022/12/09 13:55:22;;;;;;;;;28.25;25.00;;;;;;;;5048413;28;11577;-73
2022/12/09 13:57:55;;;;;;;;;30.50;26.50;;;;;;;;5048252;28;12270;-71
2022/12/09 14:00:21;;;;;;;;;25.00;21.50;;;;;;;;5045924;28;11570;-73
2022/12/09 14:03:10;;;;;;;;;24.25;23.75;;;;;;;;5040456;28;11551;-73
2022/12/09 14:05:36;;;;;;;;;19.75;18.25;;;;;;;;5028554;28;8871;-75
2022/12/09 14:08:21;;;;;;;;;18.25;17.75;;;;;;;;5046730;28;11561;-74
2022/12/09 14:10:49;;;;;;;;;19.25;18.75;;;;;;;;5046332;28;8821;-76
2022/12/09 14:13:18;;;;;;;;;17.00;14.25;;;;;;;;5048570;28;11507;-81
2022/12/09 14:15:43;;;;;;;;;29.50;27.00;;;;;;;;5048048;28;11557;-77
2022/12/09 14:18:25;;;;;;;;;32.25;29.00;;;;;;;;5047537;28;11594;-75
2022/12/09 14:21:10;;;;;;;;;38.25;33.75;;;;;;;;5044561;28;8860;-73
2022/12/09 14:23:35;;;;;;;;;34.75;29.00;;;;;;;;5045998;28;11580;-74
2022/12/09 14:26:03;;;;;;;;;23.25;21.00;;;;;;;;5040716;28;12455;-74
2022/12/09 14:28:36;;;;;;;;;30.25;28.50;;;;;;;;5030005;28;8808;-74
2022/12/09 14:31:02;;;;;;;;;31.00;25.25;;;;;;;;5045471;28;11572;-74
2022/12/09 14:33:36;;;;;;;;;34.00;29.25;;;;;;;;5051702;28;12541;-73
2022/12/09 14:36:18;;;;;;;;;27.50;23.75;;;;;;;;5051455;28;8859;-74
2022/12/09 14:38:44;;;;;;;;;29.75;26.75;;;;;;;;5050641;28;11579;-74
2022/12/09 14:41:12;;;;;;;;;30.50;24.75;;;;;;;;5047706;28;11553;-74
2022/12/09 14:43:37;;;;;;;;;27.00;25.50;;;;;;;;5049709;28;8829;-74